Time;durP1;ratioP1;P1;durP2;ratioP2;P2;SDS_P1;SDS_P2;PMS_P1;PMS_P2;Temp;Humidity;BMP_temperature;BMP_pressure;BME280_temperature;BME280_humidity;BME280_pressure;Samples;Min_cycle;Max_cycle;Signal;HPM_P1;HPM_P2
2023/10/29 06:00:44;;;;;;;7.63;4.10;;;12.10;97.20;;;;;;1742465;28;20668;-80
2023/10/29 06:01:34;;;;;;;5.20;4.07;;;12.10;97.20;;;;;;1741974;28;20203;-79
2023/10/29 06:02:25;;;;;;;5.33;4.83;;;12.10;97.20;;;;;;1742314;28;20277;-79
2023/10/29 06:03:17;;;;;;;5.60;4.80;;;12.10;97.20;;;;;;1741470;28;20203;-79
2023/10/29 06:04:08;;;;;;;5.25;4.75;;;12.10;97.20;;;;;;1742109;28;20214;-80
2023/10/29 06:04:58;;;;;;;7.83;5.60;;;12.10;97.20;;;;;;1742240;28;20218;-79
2023/10/29 06:05:51;;;;;;;6.20;5.10;;;12.10;97.20;;;;;;1742352;28;20198;-80
2023/10/29 06:06:42;;;;;;;8.25;5.47;;;12.10;97.20;;;;;;1742281;28;21151;-80
2023/10/29 06:07:33;;;;;;;7.97;5.20;;;12.10;97.20;;;;;;1742123;28;20697;-80
2023/10/29 06:08:24;;;;;;;8.03;5.77;;;12.10;97.20;;;;;;1741940;28;20559;-80
2023/10/29 06:09:15;;;;;;;7.15;5.70;;;12.00;97.20;;;;;;1741996;28;20441;-80
2023/10/29 06:10:08;;;;;;;8.87;6.60;;;12.00;97.20;;;;;;1742301;28;20207;-80
2023/10/29 06:10:59;;;;;;;7.55;6.60;;;12.00;97.20;;;;;;1742116;28;20696;-80
2023/10/29 06:11:52;;;;;;;7.75;6.70;;;12.00;97.20;;;;;;1742141;28;20207;-80
2023/10/29 06:12:44;;;;;;;6.50;5.90;;;12.00;97.20;;;;;;1742124;28;20629;-80
2023/10/29 06:13:35;;;;;;;6.93;5.47;;;12.00;97.20;;;;;;1741354;28;20230;-80
2023/10/29 06:14:25;;;;;;;6.70;5.00;;;12.10;97.20;;;;;;1741600;28;20191;-80
2023/10/29 06:15:17;;;;;;;5.40;4.90;;;12.10;97.20;;;;;;1741918;28;20191;-80
2023/10/29 06:16:10;;;;;;;7.10;4.93;;;12.10;97.20;;;;;;1742134;28;20461;-80
2023/10/29 06:17:02;;;;;;;4.70;3.35;;;12.10;97.20;;;;;;1741918;28;20227;-80
2023/10/29 06:17:54;;;;;;;3.65;2.90;;;12.10;97.20;;;;;;1741885;28;20226;-80
2023/10/29 06:18:45;;;;;;;3.15;2.85;;;12.10;97.20;;;;;;1742444;28;20199;-80
2023/10/29 06:19:36;;;;;;;3.83;2.90;;;12.10;97.20;;;;;;1741863;28;20215;-80
2023/10/29 06:20:27;;;;;;;3.10;2.60;;;12.10;97.20;;;;;;1742136;28;20199;-80
2023/10/29 06:21:20;;;;;;;4.17;2.43;;;12.10;97.20;;;;;;1742113;28;20191;-80
2023/10/29 06:22:11;;;;;;;2.53;2.10;;;12.10;97.20;;;;;;1742017;28;20567;-80
2023/10/29 06:23:02;;;;;;;3.60;2.10;;;12.10;97.20;;;;;;1741710;28;20237;-79
2023/10/29 06:23:53;;;;;;;2.73;2.20;;;12.10;97.20;;;;;;1741594;28;20222;-79
2023/10/29 06:24:44;;;;;;;4.50;2.08;;;12.10;97.20;;;;;;1741953;28;20219;-81
2023/10/29 06:25:35;;;;;;;2.93;2.03;;;12.20;97.20;;;;;;1735003;28;20214;-80
2023/10/29 06:26:28;;;;;;;2.20;2.00;;;12.20;97.20;;;;;;1735439;28;20203;-80
2023/10/29 06:27:19;;;;;;;4.22;2.33;;;12.20;97.20;;;;;;1740940;28;20210;-79
2023/10/29 06:28:10;;;;;;;3.10;2.17;;;12.20;97.20;;;;;;1741689;28;20688;-79
2023/10/29 06:29:01;;;;;;;4.18;2.08;;;12.20;97.20;;;;;;1741631;28;20202;-79
2023/10/29 06:29:52;;;;;;;2.50;2.30;;;12.20;97.20;;;;;;1741796;28;20207;-80
2023/10/29 06:30:44;;;;;;;2.50;2.30;;;12.20;97.20;;;;;;1741686;28;20199;-80
2023/10/29 06:31:36;;;;;;;3.67;2.40;;;12.30;97.20;;;;;;1742049;28;21021;-79
2023/10/29 06:32:27;;;;;;;2.95;2.67;;;12.30;97.20;;;;;;1742776;28;20238;-79
2023/10/29 06:33:18;;;;;;;4.43;3.85;;;12.30;97.20;;;;;;1741509;28;20210;-80
2023/10/29 06:34:09;;;;;;;3.70;3.40;;;12.30;97.20;;;;;;1742060;28;20233;-80
2023/10/29 06:35:01;;;;;;;5.33;3.77;;;12.30;97.20;;;;;;1742183;28;20205;-81
2023/10/29 06:35:52;;;;;;;4.47;3.58;;;12.40;97.20;;;;;;1742169;28;20199;-81
2023/10/29 06:36:43;;;;;;;4.10;3.60;;;12.40;97.20;;;;;;1742122;28;20211;-82
2023/10/29 06:37:34;;;;;;;4.75;3.85;;;12.40;97.20;;;;;;1742084;28;20210;-82
2023/10/29 06:38:25;;;;;;;4.87;3.83;;;12.50;97.20;;;;;;1742182;28;20290;-81
2023/10/29 06:39:17;;;;;;;4.93;4.53;;;12.50;97.20;;;;;;1742375;28;20508;-81
2023/10/29 06:40:08;;;;;;;5.75;4.75;;;12.50;97.20;;;;;;1742118;28;20794;-81
2023/10/29 06:41:00;;;;;;;5.80;4.80;;;12.50;97.20;;;;;;1742232;28;20207;-81
2023/10/29 06:41:52;;;;;;;6.63;4.20;;;12.50;97.20;;;;;;1742034;28;20246;-82
2023/10/29 06:42:42;;;;;;;4.60;4.15;;;12.50;97.20;;;;;;1742141;28;20663;-80
2023/10/29 06:43:35;;;;;;;4.90;4.30;;;12.50;97.20;;;;;;1741735;28;20288;-80
2023/10/29 06:44:26;;;;;;;5.10;4.05;;;12.50;97.20;;;;;;1741770;28;20657;-82
2023/10/29 06:45:16;;;;;;;6.07;4.50;;;12.50;97.20;;;;;;1742130;28;20676;-81
2023/10/29 06:46:08;;;;;;;6.43;4.67;;;12.50;97.20;;;;;;1741990;28;20207;-81
2023/10/29 06:47:00;;;;;;;5.25;4.75;;;12.50;97.20;;;;;;1742231;28;20195;-81
2023/10/29 06:47:51;;;;;;;5.30;4.80;;;12.50;97.20;;;;;;1742419;28;20213;-81
2023/10/29 06:48:43;;;;;;;5.20;4.70;;;12.50;97.20;;;;;;1742333;28;20229;-82
2023/10/29 06:49:34;;;;;;;8.00;4.72;;;12.50;97.20;;;;;;1743665;28;20210;-81
2023/10/29 06:50:24;;;;;;;4.33;3.90;;;12.50;97.20;;;;;;1743899;28;20277;-81
2023/10/29 06:51:18;;;;;;;4.50;3.50;;;12.50;97.20;;;;;;1743832;28;20672;-81
2023/10/29 06:52:10;;;;;;;3.72;2.85;;;12.60;97.20;;;;;;1743801;28;20207;-82
2023/10/29 06:53:02;;;;;;;3.55;2.47;;;12.60;97.20;;;;;;1743803;28;20614;-80
2023/10/29 06:53:53;;;;;;;3.92;2.33;;;12.60;97.20;;;;;;1743591;28;20449;-82
2023/10/29 06:54:44;;;;;;;2.42;2.10;;;12.60;97.20;;;;;;1743725;28;20214;-81
2023/10/29 06:55:35;;;;;;;2.90;2.43;;;12.60;97.20;;;;;;1743593;28;20199;-81
2023/10/29 06:56:27;;;;;;;4.13;1.90;;;12.60;97.20;;;;;;1743888;28;20195;-82
2023/10/29 06:57:17;;;;;;;2.70;2.13;;;12.60;97.20;;;;;;1743511;28;20249;-81
2023/10/29 06:58:08;;;;;;;2.80;1.70;;;12.60;97.20;;;;;;1743671;28;20199;-81
2023/10/29 06:59:00;;;;;;;2.43;2.23;;;12.60;97.20;;;;;;1744291;28;20203;-81
2023/10/29 06:59:51;;;;;;;4.38;1.60;;;12.60;97.20;;;;;;1744397;28;20206;-81
2023/10/29 07:00:42;;;;;;;3.30;1.77;;;12.60;97.20;;;;;;1744178;28;20281;-81
2023/10/29 07:01:34;;;;;;;5.27;2.30;;;12.70;97.20;;;;;;1744279;28;20203;-81
2023/10/29 07:02:26;;;;;;;2.25;1.50;;;12.70;97.20;;;;;;1744485;28;20577;-81
2023/10/29 07:03:17;;;;;;;2.00;1.80;;;12.70;97.20;;;;;;1743797;28;20207;-81
2023/10/29 07:04:08;;;;;;;3.77;1.70;;;12.70;97.20;;;;;;1743942;28;20686;-81
2023/10/29 07:04:59;;;;;;;2.28;2.08;;;12.70;97.20;;;;;;1743888;28;20203;-82
2023/10/29 07:05:50;;;;;;;1.97;1.73;;;12.70;97.20;;;;;;1744175;28;20206;-81
2023/10/29 07:06:42;;;;;;;2.80;2.03;;;12.70;97.20;;;;;;1744024;28;20288;-82
2023/10/29 07:07:34;;;;;;;6.55;2.30;;;12.70;97.20;;;;;;1744014;28;20611;-81
2023/10/29 07:08:25;;;;;;;4.88;2.50;;;12.70;97.20;;;;;;1744048;28;20207;-80
2023/10/29 07:09:17;;;;;;;2.70;2.30;;;12.70;97.20;;;;;;1744008;28;20203;-81
2023/10/29 07:10:08;;;;;;;3.08;1.90;;;12.80;97.20;;;;;;1743909;28;20206;-81
2023/10/29 07:11:00;;;;;;;7.70;2.03;;;12.80;97.20;;;;;;1743737;28;20205;-81
2023/10/29 07:11:52;;;;;;;2.10;1.90;;;12.80;97.20;;;;;;1743784;28;20199;-81
2023/10/29 07:12:43;;;;;;;3.42;2.17;;;12.80;97.20;;;;;;1744165;28;20211;-82
2023/10/29 07:13:34;;;;;;;4.47;2.60;;;12.80;97.20;;;;;;1743548;28;20223;-81
2023/10/29 07:14:26;;;;;;;3.80;2.70;;;12.80;97.20;;;;;;1743348;28;20207;-81
2023/10/29 07:15:17;;;;;;;4.05;3.53;;;12.80;97.20;;;;;;1743894;28;20229;-82
2023/10/29 07:16:09;;;;;;;4.40;3.20;;;12.90;97.20;;;;;;1744202;28;20271;-81
2023/10/29 07:17:00;;;;;;;2.95;2.53;;;12.90;97.20;;;;;;1744624;28;20492;-82
2023/10/29 07:17:52;;;;;;;3.73;2.60;;;12.90;97.20;;;;;;1744597;28;20206;-82
2023/10/29 07:18:43;;;;;;;4.22;3.03;;;12.90;97.20;;;;;;1744267;28;20246;-82
2023/10/29 07:19:34;;;;;;;5.07;2.95;;;12.90;97.20;;;;;;1744922;28;20574;-81
2023/10/29 07:20:26;;;;;;;5.00;3.07;;;12.90;97.20;;;;;;1745016;28;20203;-82
2023/10/29 07:21:17;;;;;;;3.75;2.47;;;12.90;97.20;;;;;;1744604;28;20195;-82
2023/10/29 07:22:07;;;;;;;3.07;2.50;;;13.00;97.20;;;;;;1744750;28;20209;-82
2023/10/29 07:22:59;;;;;;;7.70;3.20;;;12.90;97.20;;;;;;1744656;28;20578;-82
2023/10/29 07:23:50;;;;;;;3.58;3.03;;;13.00;97.20;;;;;;1744235;28;20230;-82
2023/10/29 07:24:41;;;;;;;4.47;3.07;;;13.00;97.20;;;;;;1744619;28;20195;-82
2023/10/29 07:25:34;;;;;;;3.80;2.90;;;13.00;97.20;;;;;;1744557;28;20293;-82
2023/10/29 07:26:24;;;;;;;2.80;2.60;;;13.00;97.20;;;;;;1744519;28;20195;-82
2023/10/29 07:27:16;;;;;;;4.10;2.77;;;13.00;97.20;;;;;;1744315;28;20199;-82
2023/10/29 07:28:07;;;;;;;5.72;2.75;;;13.00;97.20;;;;;;1744586;28;20203;-82
2023/10/29 07:28:58;;;;;;;3.40;3.10;;;13.00;97.20;;;;;;1744533;28;20195;-82
2023/10/29 07:29:50;;;;;;;3.90;2.73;;;13.00;97.20;;;;;;1744452;28;20203;-82
2023/10/29 07:30:41;;;;;;;3.40;2.90;;;13.10;97.20;;;;;;1743911;28;20203;-82
2023/10/29 07:31:33;;;;;;;3.90;2.60;;;13.10;97.20;;;;;;1742860;28;20203;-76
2023/10/29 07:32:24;;;;;;;3.25;2.47;;;13.10;97.20;;;;;;1741901;28;20214;-76
2023/10/29 07:33:16;;;;;;;5.77;2.73;;;13.10;97.20;;;;;;1741684;28;20205;-76
2023/10/29 07:34:07;;;;;;;2.70;2.50;;;13.10;97.20;;;;;;1742526;28;20203;-77
2023/10/29 07:34:59;;;;;;;4.43;2.60;;;13.10;97.20;;;;;;1742095;28;20199;-76
2023/10/29 07:35:50;;;;;;;4.32;3.20;;;13.10;97.20;;;;;;1742275;28;20584;-76
2023/10/29 07:36:44;;;;;;;2.67;2.40;;;13.10;97.20;;;;;;1742272;28;20579;-77
2023/10/29 07:37:34;;;;;;;3.15;2.45;;;13.10;97.20;;;;;;1742402;28;20223;-76
2023/10/29 07:38:26;;;;;;;4.03;3.33;;;13.10;97.20;;;;;;1742372;28;20215;-77
2023/10/29 07:39:17;;;;;;;6.03;3.05;;;13.10;97.20;;;;;;1742159;28;20225;-77
2023/10/29 07:40:09;;;;;;;3.63;3.05;;;13.10;97.20;;;;;;1742291;28;20213;-77
2023/10/29 07:41:00;;;;;;;5.00;2.95;;;13.10;97.20;;;;;;1744527;28;20715;-77
2023/10/29 07:41:51;;;;;;;5.97;3.00;;;13.10;97.20;;;;;;1749269;28;20210;-76
2023/10/29 07:42:42;;;;;;;4.00;3.22;;;13.10;97.20;;;;;;1742249;28;20684;-77
2023/10/29 07:43:33;;;;;;;4.57;3.57;;;13.10;97.20;;;;;;1741885;28;20693;-77
2023/10/29 07:44:25;;;;;;;4.43;2.80;;;13.10;97.20;;;;;;1742525;28;20585;-77
2023/10/29 07:45:16;;;;;;;3.00;2.67;;;13.20;97.20;;;;;;1742215;28;20203;-77
2023/10/29 07:46:07;;;;;;;2.90;2.28;;;13.20;97.20;;;;;;1742145;28;20205;-77
2023/10/29 07:47:03;;;;;;;3.70;2.70;;;13.20;97.20;;;;;;1741850;28;20195;-75
2023/10/29 07:47:53;;;;;;;2.53;2.33;;;13.20;97.20;;;;;;1738438;28;20237;-76
2023/10/29 07:48:46;;;;;;;3.33;2.40;;;13.20;97.20;;;;;;1742300;28;20202;-77
2023/10/29 07:49:37;;;;;;;3.00;2.40;;;13.30;97.20;;;;;;1742243;28;20282;-77
2023/10/29 07:50:29;;;;;;;7.30;2.30;;;13.30;97.20;;;;;;1741969;28;20285;-77
2023/10/29 07:51:20;;;;;;;4.68;2.78;;;13.30;97.20;;;;;;1742442;28;20583;-77
2023/10/29 07:52:12;;;;;;;2.37;2.03;;;13.30;97.20;;;;;;1742446;28;20569;-78
2023/10/29 07:53:02;;;;;;;3.47;2.22;;;13.30;97.20;;;;;;1742216;28;20448;-77
2023/10/29 07:53:53;;;;;;;4.47;2.90;;;13.30;97.20;;;;;;1741937;28;20261;-78
2023/10/29 07:54:45;;;;;;;3.75;2.47;;;13.30;97.20;;;;;;1742722;28;20290;-77
2023/10/29 07:55:36;;;;;;;5.10;2.90;;;13.30;97.20;;;;;;1742969;28;20206;-77
2023/10/29 07:56:27;;;;;;;5.33;3.30;;;13.30;97.20;;;;;;1742398;28;20202;-77
2023/10/29 07:57:19;;;;;;;3.20;2.50;;;13.30;97.20;;;;;;1742410;28;20692;-78
2023/10/29 07:58:10;;;;;;;3.75;3.03;;;13.30;97.20;;;;;;1742396;28;20441;-78
2023/10/29 07:59:01;;;;;;;4.43;3.43;;;13.30;97.20;;;;;;1742552;28;20191;-78
2023/10/29 07:59:53;;;;;;;5.63;3.20;;;13.30;97.20;;;;;;1742259;28;20286;-77
2023/10/29 08:00:44;;;;;;;3.30;2.70;;;13.40;97.20;;;;;;1742472;28;20203;-78
2023/10/29 08:01:35;;;;;;;3.53;3.22;;;13.40;97.20;;;;;;1742252;28;20325;-78
2023/10/29 08:02:27;;;;;;;4.87;3.30;;;13.40;97.20;;;;;;1742422;28;20333;-76
2023/10/29 08:03:17;;;;;;;3.47;2.30;;;13.40;97.20;;;;;;1741783;28;20210;-78
2023/10/29 08:04:10;;;;;;;3.83;2.47;;;13.50;97.20;;;;;;1742519;28;20298;-79
2023/10/29 08:05:01;;;;;;;4.40;3.22;;;13.50;97.20;;;;;;1742777;28;20207;-78
2023/10/29 08:05:52;;;;;;;3.72;2.60;;;13.50;97.20;;;;;;1742473;28;20673;-78
2023/10/29 08:06:44;;;;;;;4.70;2.40;;;13.50;97.20;;;;;;1742230;28;20667;-78
2023/10/29 08:07:35;;;;;;;2.65;2.45;;;13.50;97.20;;;;;;1742378;28;20199;-78
2023/10/29 08:08:25;;;;;;;3.33;2.60;;;13.60;97.20;;;;;;1742376;28;20199;-77
2023/10/29 08:09:17;;;;;;;3.80;2.70;;;13.60;97.20;;;;;;1742285;28;20209;-77
2023/10/29 08:10:09;;;;;;;4.05;3.00;;;13.60;97.20;;;;;;1742252;28;20210;-76
2023/10/29 08:11:00;;;;;;;4.00;3.08;;;13.70;97.20;;;;;;1742392;28;20203;-77
2023/10/29 08:11:51;;;;;;;4.90;3.00;;;13.70;97.20;;;;;;1742447;28;20699;-78
2023/10/29 08:12:42;;;;;;;5.28;2.63;;;13.70;97.20;;;;;;1742330;28;20207;-77
2023/10/29 08:13:33;;;;;;;7.30;2.47;;;13.70;97.20;;;;;;1741981;28;20223;-78
2023/10/29 08:14:24;;;;;;;5.10;2.27;;;13.70;97.20;;;;;;1742244;28;20203;-77
2023/10/29 08:15:15;;;;;;;3.25;2.20;;;13.70;97.20;;;;;;1742196;28;20199;-77
2023/10/29 08:16:07;;;;;;;3.40;2.33;;;13.80;97.20;;;;;;1742451;28;20224;-77
2023/10/29 08:16:58;;;;;;;8.63;3.30;;;13.90;97.20;;;;;;1742543;28;20438;-77
2023/10/29 08:17:49;;;;;;;5.27;2.60;;;13.90;97.20;;;;;;1742370;28;20227;-77
2023/10/29 08:18:41;;;;;;;2.40;2.20;;;14.00;97.20;;;;;;1742490;28;20597;-77
2023/10/29 08:19:33;;;;;;;2.85;1.95;;;14.00;97.20;;;;;;1741878;28;20194;-77
2023/10/29 08:20:24;;;;;;;2.80;1.67;;;14.10;97.20;;;;;;1742419;28;20261;-77
2023/10/29 08:21:15;;;;;;;3.42;2.00;;;14.10;97.20;;;;;;1742513;28;20544;-78
2023/10/29 08:22:06;;;;;;;4.07;2.20;;;14.20;97.20;;;;;;1742760;28;20241;-78
2023/10/29 08:22:57;;;;;;;3.10;2.10;;;14.20;97.20;;;;;;1742506;28;20495;-77
2023/10/29 08:23:48;;;;;;;3.22;2.17;;;14.30;97.20;;;;;;1743429;28;20615;-78
2023/10/29 08:24:39;;;;;;;2.30;2.10;;;14.30;97.20;;;;;;1743605;28;20225;-78
2023/10/29 08:25:32;;;;;;;2.83;2.53;;;14.30;97.20;;;;;;1743575;28;20453;-78
2023/10/29 08:26:26;;;;;;;3.50;2.58;;;14.30;97.20;;;;;;1743778;28;20691;-79
2023/10/29 08:27:17;;;;;;;4.15;2.92;;;14.40;97.20;;;;;;1743286;28;20274;-78
2023/10/29 08:28:08;;;;;;;5.13;2.58;;;14.40;97.20;;;;;;1744141;28;20210;-77
2023/10/29 08:29:00;;;;;;;4.13;2.70;;;14.40;97.20;;;;;;1742714;28;20199;-78
2023/10/29 08:29:51;;;;;;;3.30;2.70;;;14.40;97.20;;;;;;1742689;28;20203;-78
2023/10/29 08:30:42;;;;;;;3.60;2.40;;;14.50;97.20;;;;;;1742587;28;20684;-79
2023/10/29 08:31:33;;;;;;;2.53;1.90;;;14.50;97.20;;;;;;1743423;28;20449;-79
2023/10/29 08:32:27;;;;;;;3.40;2.37;;;14.50;97.20;;;;;;1743431;28;20205;-79
2023/10/29 08:33:19;;;;;;;2.63;2.10;;;14.50;97.20;;;;;;1742510;28;20211;-78
2023/10/29 08:34:11;;;;;;;2.65;2.08;;;14.50;97.20;;;;;;1743242;28;20199;-79
2023/10/29 08:35:05;;;;;;;2.50;1.88;;;14.60;97.20;;;;;;1742461;28;20203;-79
2023/10/29 08:35:56;;;;;;;2.85;2.15;;;14.60;97.20;;;;;;1742548;28;20202;-78
2023/10/29 08:36:48;;;;;;;3.60;1.90;;;14.70;97.20;;;;;;1742719;28;20207;-78
2023/10/29 08:37:38;;;;;;;2.90;2.03;;;14.70;97.20;;;;;;1742410;28;20222;-78
2023/10/29 08:38:29;;;;;;;2.60;2.07;;;14.70;97.20;;;;;;1742646;28;20198;-80
2023/10/29 08:39:21;;;;;;;2.00;1.80;;;14.80;97.20;;;;;;1742968;28;20260;-80
2023/10/29 08:40:14;;;;;;;2.33;1.90;;;14.80;97.20;;;;;;1742438;28;20604;-78
2023/10/29 08:41:12;;;;;;;3.28;1.98;;;14.90;97.20;;;;;;1742666;28;20195;-78
2023/10/29 08:42:04;;;;;;;2.28;1.70;;;14.90;97.20;;;;;;1742698;28;20543;-78
2023/10/29 08:42:55;;;;;;;1.80;1.65;;;14.90;97.20;;;;;;1735306;28;20211;-79
2023/10/29 08:43:47;;;;;;;2.10;1.90;;;15.00;97.20;;;;;;1736479;28;20215;-79
2023/10/29 08:44:38;;;;;;;2.33;2.10;;;15.00;97.20;;;;;;1742436;28;20238;-78
2023/10/29 08:45:30;;;;;;;2.10;1.90;;;15.10;97.20;;;;;;1743171;28;20203;-79
2023/10/29 08:46:20;;;;;;;1.65;1.55;;;15.10;97.20;;;;;;1742547;28;20207;-78
2023/10/29 08:47:12;;;;;;;1.97;1.63;;;15.10;97.20;;;;;;1742645;28;20202;-79
2023/10/29 08:48:03;;;;;;;2.05;1.63;;;15.10;97.20;;;;;;1742484;28;20203;-79
2023/10/29 08:48:55;;;;;;;4.18;2.00;;;15.20;97.20;;;;;;1742233;28;20223;-78
2023/10/29 08:49:46;;;;;;;2.80;1.95;;;15.20;97.20;;;;;;1742436;28;20199;-79
2023/10/29 08:50:38;;;;;;;2.80;1.73;;;15.20;97.20;;;;;;1742411;28;20291;-79
2023/10/29 08:51:30;;;;;;;3.50;1.92;;;15.20;97.20;;;;;;1741862;28;20958;-78
2023/10/29 08:52:20;;;;;;;2.25;1.70;;;15.20;97.20;;;;;;1742360;28;20199;-79
2023/10/29 08:53:11;;;;;;;2.73;2.03;;;15.20;97.20;;;;;;1742112;28;20282;-79
2023/10/29 08:54:03;;;;;;;1.77;1.50;;;15.20;97.20;;;;;;1742594;28;20207;-79
2023/10/29 08:54:54;;;;;;;2.60;1.75;;;15.20;97.20;;;;;;1742071;28;20254;-77
2023/10/29 08:55:45;;;;;;;3.17;1.87;;;15.20;97.20;;;;;;1742310;28;20203;-77
2023/10/29 08:56:37;;;;;;;2.47;1.90;;;15.20;97.20;;;;;;1741654;28;20202;-78
2023/10/29 08:57:28;;;;;;;3.30;1.80;;;15.20;97.20;;;;;;1742278;28;20230;-79
2023/10/29 08:58:20;;;;;;;2.33;2.00;;;15.20;97.20;;;;;;1742400;28;20203;-79
2023/10/29 08:59:12;;;;;;;2.85;1.73;;;15.20;97.20;;;;;;1742621;28;20277;-78
2023/10/29 09:00:03;;;;;;;2.63;1.98;;;15.30;97.20;;;;;;1742122;28;20209;-79
2023/10/29 09:00:57;;;;;;;1.95;1.70;;;15.30;97.20;;;;;;1742300;28;20203;-78
2023/10/29 09:01:48;;;;;;;2.53;1.90;;;15.30;97.20;;;;;;1742321;28;20199;-79
2023/10/29 09:02:39;;;;;;;2.37;1.60;;;15.30;97.20;;;;;;1742751;28;20225;-78
2023/10/29 09:03:30;;;;;;;2.00;1.80;;;15.30;97.20;;;;;;1742273;28;20465;-78
2023/10/29 09:04:22;;;;;;;2.25;1.60;;;15.30;97.20;;;;;;1742631;28;20286;-78
2023/10/29 09:05:15;;;;;;;4.30;1.85;;;15.40;97.20;;;;;;1742280;28;20210;-78
2023/10/29 09:06:08;;;;;;;3.50;1.67;;;15.40;97.20;;;;;;1742084;28;20223;-77
2023/10/29 09:06:59;;;;;;;3.65;2.00;;;15.40;97.20;;;;;;1742766;28;20214;-78
2023/10/29 09:07:50;;;;;;;2.07;1.87;;;15.50;97.20;;;;;;1742246;28;20218;-77
2023/10/29 09:08:42;;;;;;;2.67;1.60;;;15.50;97.20;;;;;;1742555;28;20529;-79
2023/10/29 09:09:33;;;;;;;2.47;1.80;;;15.50;97.20;;;;;;1743016;28;20203;-79
2023/10/29 09:10:23;;;;;;;2.70;1.70;;;15.50;97.20;;;;;;1742350;28;20210;-77
2023/10/29 09:11:15;;;;;;;2.20;2.00;;;15.60;97.20;;;;;;1742417;28;20442;-77
2023/10/29 09:12:06;;;;;;;2.40;2.13;;;15.60;97.20;;;;;;1742177;28;20195;-78
2023/10/29 09:12:57;;;;;;;3.27;2.00;;;15.60;97.20;;;;;;1741165;28;20227;-77
2023/10/29 09:13:48;;;;;;;1.80;1.70;;;15.60;97.20;;;;;;1741961;28;20466;-78
2023/10/29 09:14:39;;;;;;;2.67;1.95;;;15.70;97.20;;;;;;1742078;28;20229;-78
2023/10/29 09:15:31;;;;;;;3.43;2.03;;;15.70;97.20;;;;;;1741977;28;20199;-77
2023/10/29 09:16:22;;;;;;;2.25;2.05;;;15.80;97.20;;;;;;1742456;28;20230;-78
2023/10/29 09:17:13;;;;;;;3.05;1.80;;;15.80;97.20;;;;;;1742724;28;20214;-77
2023/10/29 09:18:04;;;;;;;2.73;1.83;;;15.80;97.20;;;;;;1743012;28;20227;-78
2023/10/29 09:18:56;;;;;;;2.30;2.10;;;15.80;97.20;;;;;;1743087;28;20203;-78
2023/10/29 09:19:46;;;;;;;2.53;2.20;;;15.90;97.20;;;;;;1743114;28;20214;-79
2023/10/29 09:20:39;;;;;;;2.70;2.50;;;15.90;97.20;;;;;;1743295;28;20202;-79
2023/10/29 09:21:31;;;;;;;3.45;2.20;;;16.00;97.20;;;;;;1742851;28;20818;-78
2023/10/29 09:22:22;;;;;;;3.00;2.35;;;16.00;97.20;;;;;;1742243;28;20211;-78
2023/10/29 09:23:14;;;;;;;3.03;1.90;;;16.00;97.20;;;;;;1741723;28;20191;-81
2023/10/29 09:24:06;;;;;;;2.17;1.95;;;16.10;97.20;;;;;;1742513;28;20256;-78
2023/10/29 09:24:57;;;;;;;2.22;1.90;;;16.10;97.20;;;;;;1741892;28;20191;-77
2023/10/29 09:25:49;;;;;;;4.40;2.00;;;16.20;97.20;;;;;;1742688;28;20206;-77
2023/10/29 09:26:40;;;;;;;4.55;1.75;;;16.20;97.20;;;;;;1742332;28;20331;-78
2023/10/29 09:27:32;;;;;;;2.10;1.83;;;16.20;97.20;;;;;;1742422;28;20657;-77
2023/10/29 09:28:23;;;;;;;2.25;1.70;;;16.20;97.20;;;;;;1742067;28;20199;-77
2023/10/29 09:29:16;;;;;;;3.60;1.90;;;16.30;97.20;;;;;;1742185;28;20282;-78
2023/10/29 09:30:08;;;;;;;2.00;1.67;;;16.30;97.20;;;;;;1742335;28;20234;-78
2023/10/29 09:30:58;;;;;;;5.60;1.90;;;16.30;97.20;;;;;;1743576;28;20574;-78
2023/10/29 09:31:51;;;;;;;2.07;1.87;;;16.30;97.20;;;;;;1741456;28;20274;-77
2023/10/29 09:32:42;;;;;;;2.20;1.80;;;16.20;97.20;;;;;;1734799;28;20346;-77
2023/10/29 09:33:34;;;;;;;2.50;2.00;;;16.20;97.20;;;;;;1739758;28;20296;-76
2023/10/29 09:34:26;;;;;;;2.35;2.08;;;16.20;97.20;;;;;;1741697;28;20445;-78
2023/10/29 09:35:18;;;;;;;2.85;1.92;;;16.20;97.20;;;;;;1741629;28;20701;-76
2023/10/29 09:36:09;;;;;;;2.45;1.90;;;16.20;97.20;;;;;;1741794;28;20211;-78
2023/10/29 09:37:02;;;;;;;3.73;2.13;;;16.20;97.20;;;;;;1741620;28;20195;-78
2023/10/29 09:37:52;;;;;;;2.67;2.13;;;16.10;97.20;;;;;;1736921;28;20481;-78
2023/10/29 09:38:45;;;;;;;2.60;2.40;;;16.10;97.20;;;;;;1737096;28;20279;-76
2023/10/29 09:39:37;;;;;;;4.47;2.25;;;16.10;97.20;;;;;;1742308;28;20568;-78
2023/10/29 09:40:28;;;;;;;2.88;2.00;;;16.10;97.20;;;;;;1741402;28;20291;-77
2023/10/29 09:41:19;;;;;;;2.23;1.70;;;16.10;97.20;;;;;;1742183;28;20203;-78
2023/10/29 09:42:15;;;;;;;2.53;1.88;;;16.10;97.20;;;;;;1742641;28;20214;-78
2023/10/29 09:43:08;;;;;;;3.35;1.73;;;16.10;97.20;;;;;;1742184;28;20225;-78
2023/10/29 09:44:01;;;;;;;3.45;1.33;;;16.10;97.20;;;;;;1741993;28;20199;-78
2023/10/29 09:44:58;;;;;;;1.80;1.45;;;16.10;97.20;;;;;;1743780;28;20225;-78
2023/10/29 09:45:53;;;;;;;2.50;1.30;;;16.10;97.20;;;;;;1743011;28;20823;-77
2023/10/29 09:46:45;;;;;;;1.90;1.45;;;16.10;97.20;;;;;;1742567;28;20211;-78
2023/10/29 09:47:37;;;;;;;1.70;1.40;;;16.20;97.20;;;;;;1742441;28;20203;-77
2023/10/29 09:48:28;;;;;;;2.45;1.70;;;16.20;97.20;;;;;;1742528;28;20210;-77
2023/10/29 09:49:21;;;;;;;2.67;1.70;;;16.20;97.20;;;;;;1743455;28;20207;-77
2023/10/29 09:50:13;;;;;;;1.90;1.30;;;16.30;97.20;;;;;;1742825;28;20207;-78
2023/10/29 09:51:06;;;;;;;3.45;1.48;;;16.30;97.20;;;;;;1743356;28;20623;-77
2023/10/29 09:51:57;;;;;;;1.77;1.40;;;16.30;97.20;;;;;;1742356;28;20207;-78
2023/10/29 09:52:51;;;;;;;2.60;1.87;;;16.30;97.20;;;;;;1742858;28;20267;-78
2023/10/29 09:53:43;;;;;;;1.95;1.38;;;16.40;97.20;;;;;;1742959;28;20476;-77
2023/10/29 09:54:34;;;;;;;2.10;1.60;;;16.40;97.20;;;;;;1742723;28;20234;-77
2023/10/29 09:55:25;;;;;;;2.27;1.40;;;16.40;97.20;;;;;;1743162;28;20209;-78
2023/10/29 09:56:17;;;;;;;2.40;1.80;;;16.40;97.20;;;;;;1743525;28;20532;-78
2023/10/29 09:57:08;;;;;;;1.70;1.58;;;16.40;97.20;;;;;;1742704;28;20259;-77
2023/10/29 09:57:59;;;;;;;3.17;1.90;;;16.40;97.20;;;;;;1741965;28;20231;-77
2023/10/29 09:58:51;;;;;;;2.45;1.88;;;16.50;97.20;;;;;;1741452;28;20195;-78
2023/10/29 09:59:42;;;;;;;2.38;1.60;;;16.50;97.20;;;;;;1741851;28;20206;-76
2023/10/29 10:00:34;;;;;;;2.67;1.80;;;16.50;97.20;;;;;;1742068;28;20287;-77
2023/10/29 10:01:25;;;;;;;7.90;6.35;;;16.50;97.20;;;;;;1741907;28;20203;-79
2023/10/29 10:02:16;;;;;;;9.07;8.27;;;16.50;97.20;;;;;;1741607;28;20207;-77
2023/10/29 10:03:07;;;;;;;4.17;3.27;;;16.60;97.20;;;;;;1741106;28;20195;-78
2023/10/29 10:03:59;;;;;;;5.10;3.80;;;16.60;97.20;;;;;;1741698;28;20201;-77
2023/10/29 10:04:51;;;;;;;7.47;6.70;;;16.60;97.20;;;;;;1741877;28;21005;-77
2023/10/29 10:05:42;;;;;;;8.10;7.28;;;16.60;97.20;;;;;;1741576;28;20757;-76
2023/10/29 10:06:37;;;;;;;5.80;5.30;;;16.60;97.20;;;;;;1741395;28;20663;-78
2023/10/29 10:07:29;;;;;;;6.03;5.40;;;16.60;97.20;;;;;;1741941;28;20207;-76
2023/10/29 10:08:24;;;;;;;2.90;2.45;;;16.60;97.20;;;;;;1741555;28;20278;-76
2023/10/29 10:09:16;;;;;;;4.38;2.95;;;16.70;97.20;;;;;;1741556;28;20697;-77
2023/10/29 10:10:07;;;;;;;4.47;4.07;;;16.70;97.20;;;;;;1741464;28;20195;-77
2023/10/29 10:10:59;;;;;;;5.68;5.18;;;16.70;97.20;;;;;;1741584;28;20241;-77
2023/10/29 10:12:03;;;;;;;5.05;4.55;;;16.70;97.20;;;;;;1741521;28;20205;-77
2023/10/29 10:12:54;;;;;;;6.65;5.25;;;16.70;97.20;;;;;;1738794;28;20610;-76
2023/10/29 10:13:44;;;;;;;2.70;2.50;;;16.70;97.20;;;;;;1741465;28;20641;-78
2023/10/29 10:14:36;;;;;;;2.60;2.20;;;16.70;97.20;;;;;;1738944;28;20353;-77
2023/10/29 10:15:27;;;;;;;5.10;4.60;;;16.70;97.20;;;;;;1738678;28;20199;-77
2023/10/29 10:16:19;;;;;;;2.67;2.43;;;16.80;97.20;;;;;;1741489;28;20187;-77
2023/10/29 10:17:12;;;;;;;4.70;3.38;;;16.70;97.20;;;;;;1741535;28;20442;-77
2023/10/29 10:18:05;;;;;;;3.03;2.60;;;16.70;97.20;;;;;;1741469;28;20296;-77
2023/10/29 10:18:57;;;;;;;3.35;2.30;;;16.70;97.20;;;;;;1741469;28;20210;-77
2023/10/29 10:20:05;;;;;;;3.38;3.08;;;16.70;97.20;;;;;;1741575;28;20207;-78
2023/10/29 10:20:57;;;;;;;4.45;4.05;;;16.70;97.20;;;;;;1734894;28;20247;-78
2023/10/29 10:21:50;;;;;;;3.60;3.30;;;16.70;97.20;;;;;;1735077;28;20203;-77
2023/10/29 10:22:43;;;;;;;3.00;2.65;;;16.70;97.20;;;;;;1741542;28;20195;-77
2023/10/29 10:23:46;;;;;;;3.60;2.70;;;16.70;97.20;;;;;;1741049;28;20246;-78
2023/10/29 10:24:39;;;;;;;4.38;3.97;;;16.70;97.20;;;;;;1734603;28;20204;-78
2023/10/29 10:25:32;;;;;;;4.72;4.22;;;16.70;97.20;;;;;;1734971;28;20203;-77
2023/10/29 10:26:31;;;;;;;3.97;2.20;;;16.70;97.20;;;;;;1741746;28;20203;-78
2023/10/29 10:27:22;;;;;;;7.13;2.20;;;16.70;97.20;;;;;;1741703;28;20234;-77
2023/10/29 10:28:14;;;;;;;10.00;8.00;;;16.70;97.20;;;;;;1741411;28;20192;-77
2023/10/29 10:29:07;;;;;;;11.38;9.25;;;16.70;97.20;;;;;;1741649;28;20736;-78